sensor_id;sensor_type;location;lat;lon;timestamp;temperature;humidity
19385;DHT22;9828;54.122;17.974;2023-12-20T00:03:13;6.60;99.90
19385;DHT22;9828;54.122;17.974;2023-12-20T00:08:34;6.60;99.90
19385;DHT22;9828;54.122;17.974;2023-12-20T00:13:55;6.60;99.90
19385;DHT22;9828;54.122;17.974;2023-12-20T00:19:16;6.70;99.90
19385;DHT22;9828;54.122;17.974;2023-12-20T00:24:38;6.70;99.90
19385;DHT22;9828;54.122;17.974;2023-12-20T00:29:59;6.60;99.90
19385;DHT22;9828;54.122;17.974;2023-12-20T00:35:20;6.60;99.90
19385;DHT22;9828;54.122;17.974;2023-12-20T00:40:42;6.70;99.90
19385;DHT22;9828;54.122;17.974;2023-12-20T00:46:03;6.70;99.90
19385;DHT22;9828;54.122;17.974;2023-12-20T00:51:24;6.60;99.90
19385;DHT22;9828;54.122;17.974;2023-12-20T00:56:46;6.50;93.20
19385;DHT22;9828;54.122;17.974;2023-12-20T01:02:07;6.40;91.70
19385;DHT22;9828;54.122;17.974;2023-12-20T01:07:29;6.30;99.90
19385;DHT22;9828;54.122;17.974;2023-12-20T01:12:51;6.30;99.90
19385;DHT22;9828;54.122;17.974;2023-12-20T01:18:12;6.20;99.90
19385;DHT22;9828;54.122;17.974;2023-12-20T01:23:33;6.20;90.30
19385;DHT22;9828;54.122;17.974;2023-12-20T01:28:55;6.20;72.40
19385;DHT22;9828;54.122;17.974;2023-12-20T01:34:17;6.30;40.70
19385;DHT22;9828;54.122;17.974;2023-12-20T01:39:38;6.20;32.90
19385;DHT22;9828;54.122;17.974;2023-12-20T01:44:59;6.10;20.80
19385;DHT22;9828;54.122;17.974;2023-12-20T01:50:21;6.10;26.30
19385;DHT22;9828;54.122;17.974;2023-12-20T01:55:43;6.00;33.40
19385;DHT22;9828;54.122;17.974;2023-12-20T02:01:04;5.90;47.30
19385;DHT22;9828;54.122;17.974;2023-12-20T02:06:29;5.90;68.90
19385;DHT22;9828;54.122;17.974;2023-12-20T02:11:52;5.80;63.20
19385;DHT22;9828;54.122;17.974;2023-12-20T02:17:13;5.80;73.50
19385;DHT22;9828;54.122;17.974;2023-12-20T02:22:35;5.90;32.40
19385;DHT22;9828;54.122;17.974;2023-12-20T02:27:56;5.80;15.30
19385;DHT22;9828;54.122;17.974;2023-12-20T02:33:17;5.70;1.00
19385;DHT22;9828;54.122;17.974;2023-12-20T02:38:39;5.70;1.00
19385;DHT22;9828;54.122;17.974;2023-12-20T02:44:01;5.60;1.00
19385;DHT22;9828;54.122;17.974;2023-12-20T02:49:23;5.50;1.00
19385;DHT22;9828;54.122;17.974;2023-12-20T02:54:44;5.50;1.00
19385;DHT22;9828;54.122;17.974;2023-12-20T03:00:06;5.40;1.00
19385;DHT22;9828;54.122;17.974;2023-12-20T03:05:28;5.40;1.00
19385;DHT22;9828;54.122;17.974;2023-12-20T03:10:50;5.40;1.00
19385;DHT22;9828;54.122;17.974;2023-12-20T03:16:12;5.40;1.00
19385;DHT22;9828;54.122;17.974;2023-12-20T03:21:33;5.40;1.00
19385;DHT22;9828;54.122;17.974;2023-12-20T03:26:55;5.40;1.00
19385;DHT22;9828;54.122;17.974;2023-12-20T03:32:16;5.40;1.00
19385;DHT22;9828;54.122;17.974;2023-12-20T03:37:37;5.40;1.00
19385;DHT22;9828;54.122;17.974;2023-12-20T03:42:59;5.40;1.00
19385;DHT22;9828;54.122;17.974;2023-12-20T03:48:20;5.40;1.00
19385;DHT22;9828;54.122;17.974;2023-12-20T03:53:42;5.30;1.00
19385;DHT22;9828;54.122;17.974;2023-12-20T03:59:03;5.30;1.00
19385;DHT22;9828;54.122;17.974;2023-12-20T04:04:24;5.20;1.00
19385;DHT22;9828;54.122;17.974;2023-12-20T04:09:45;5.10;1.00
19385;DHT22;9828;54.122;17.974;2023-12-20T04:15:08;5.10;1.00
19385;DHT22;9828;54.122;17.974;2023-12-20T04:20:30;5.10;1.00
19385;DHT22;9828;54.122;17.974;2023-12-20T04:25:52;5.00;1.00
19385;DHT22;9828;54.122;17.974;2023-12-20T04:31:13;5.00;1.00
19385;DHT22;9828;54.122;17.974;2023-12-20T04:36:35;5.00;1.00
19385;DHT22;9828;54.122;17.974;2023-12-20T04:41:56;4.90;1.00
19385;DHT22;9828;54.122;17.974;2023-12-20T04:47:17;4.90;1.00
19385;DHT22;9828;54.122;17.974;2023-12-20T04:52:39;4.90;1.00
19385;DHT22;9828;54.122;17.974;2023-12-20T04:58:00;4.90;1.00
19385;DHT22;9828;54.122;17.974;2023-12-20T05:03:22;4.80;1.00
19385;DHT22;9828;54.122;17.974;2023-12-20T05:08:43;4.70;1.00
19385;DHT22;9828;54.122;17.974;2023-12-20T05:14:04;4.70;1.00
19385;DHT22;9828;54.122;17.974;2023-12-20T05:19:26;4.60;1.00
19385;DHT22;9828;54.122;17.974;2023-12-20T05:24:47;4.60;1.00
19385;DHT22;9828;54.122;17.974;2023-12-20T05:30:09;4.60;1.00
19385;DHT22;9828;54.122;17.974;2023-12-20T05:35:30;4.60;1.00
19385;DHT22;9828;54.122;17.974;2023-12-20T05:40:52;4.60;1.00
19385;DHT22;9828;54.122;17.974;2023-12-20T05:46:13;4.60;1.00
19385;DHT22;9828;54.122;17.974;2023-12-20T05:51:34;4.60;1.00
19385;DHT22;9828;54.122;17.974;2023-12-20T05:56:56;4.60;1.00
19385;DHT22;9828;54.122;17.974;2023-12-20T06:02:17;4.50;1.00
19385;DHT22;9828;54.122;17.974;2023-12-20T06:07:38;4.50;1.00
19385;DHT22;9828;54.122;17.974;2023-12-20T06:12:59;4.50;1.00
19385;DHT22;9828;54.122;17.974;2023-12-20T06:18:21;4.50;1.00
19385;DHT22;9828;54.122;17.974;2023-12-20T06:23:43;4.50;1.00
19385;DHT22;9828;54.122;17.974;2023-12-20T06:29:04;4.50;1.00
19385;DHT22;9828;54.122;17.974;2023-12-20T06:34:25;4.50;1.00
19385;DHT22;9828;54.122;17.974;2023-12-20T06:39:46;4.50;1.00
19385;DHT22;9828;54.122;17.974;2023-12-20T06:45:08;4.50;1.00
19385;DHT22;9828;54.122;17.974;2023-12-20T06:50:30;4.50;1.00
19385;DHT22;9828;54.122;17.974;2023-12-20T06:55:51;4.40;1.00
19385;DHT22;9828;54.122;17.974;2023-12-20T07:01:13;4.40;1.00
19385;DHT22;9828;54.122;17.974;2023-12-20T07:06:34;4.30;1.00
19385;DHT22;9828;54.122;17.974;2023-12-20T07:11:56;4.30;1.00
19385;DHT22;9828;54.122;17.974;2023-12-20T07:17:17;4.20;1.00
19385;DHT22;9828;54.122;17.974;2023-12-20T07:22:38;4.10;1.00
19385;DHT22;9828;54.122;17.974;2023-12-20T07:28:00;4.00;1.00
19385;DHT22;9828;54.122;17.974;2023-12-20T07:33:21;4.00;1.00
19385;DHT22;9828;54.122;17.974;2023-12-20T07:38:43;3.90;1.00
19385;DHT22;9828;54.122;17.974;2023-12-20T07:44:05;3.90;1.00
19385;DHT22;9828;54.122;17.974;2023-12-20T07:49:27;3.90;1.00
19385;DHT22;9828;54.122;17.974;2023-12-20T07:54:48;3.80;1.00
19385;DHT22;9828;54.122;17.974;2023-12-20T08:00:10;3.80;1.00
19385;DHT22;9828;54.122;17.974;2023-12-20T08:05:32;3.80;1.00
19385;DHT22;9828;54.122;17.974;2023-12-20T08:10:53;3.90;1.00
19385;DHT22;9828;54.122;17.974;2023-12-20T08:16:14;4.00;1.00
19385;DHT22;9828;54.122;17.974;2023-12-20T08:21:38;4.00;1.00
19385;DHT22;9828;54.122;17.974;2023-12-20T08:26:59;4.10;1.00
19385;DHT22;9828;54.122;17.974;2023-12-20T08:32:21;4.20;1.00
19385;DHT22;9828;54.122;17.974;2023-12-20T08:37:43;4.30;1.00
19385;DHT22;9828;54.122;17.974;2023-12-20T08:43:04;4.60;1.00
19385;DHT22;9828;54.122;17.974;2023-12-20T08:48:25;4.80;99.90
19385;DHT22;9828;54.122;17.974;2023-12-20T08:53:47;4.80;31.60
19385;DHT22;9828;54.122;17.974;2023-12-20T08:59:08;4.80;99.90
19385;DHT22;9828;54.122;17.974;2023-12-20T09:04:30;4.70;99.90
19385;DHT22;9828;54.122;17.974;2023-12-20T09:09:52;4.70;99.90
19385;DHT22;9828;54.122;17.974;2023-12-20T09:15:13;4.80;99.90
19385;DHT22;9828;54.122;17.974;2023-12-20T09:20:35;4.80;99.90
19385;DHT22;9828;54.122;17.974;2023-12-20T09:25:57;4.80;1.00
19385;DHT22;9828;54.122;17.974;2023-12-20T09:31:18;4.80;68.50
19385;DHT22;9828;54.122;17.974;2023-12-20T09:36:40;4.80;1.00
19385;DHT22;9828;54.122;17.974;2023-12-20T09:42:07;4.90;99.90
19385;DHT22;9828;54.122;17.974;2023-12-20T09:47:28;4.90;99.90
19385;DHT22;9828;54.122;17.974;2023-12-20T09:52:52;4.90;99.90
19385;DHT22;9828;54.122;17.974;2023-12-20T09:58:13;5.00;99.90
19385;DHT22;9828;54.122;17.974;2023-12-20T10:03:35;5.10;99.90
19385;DHT22;9828;54.122;17.974;2023-12-20T10:08:57;5.10;99.90
19385;DHT22;9828;54.122;17.974;2023-12-20T10:14:19;5.10;26.10
19385;DHT22;9828;54.122;17.974;2023-12-20T10:19:42;5.10;1.00
19385;DHT22;9828;54.122;17.974;2023-12-20T10:25:04;5.10;99.90
19385;DHT22;9828;54.122;17.974;2023-12-20T10:30:27;5.10;99.90
19385;DHT22;9828;54.122;17.974;2023-12-20T10:35:48;5.10;99.90
19385;DHT22;9828;54.122;17.974;2023-12-20T10:41:10;5.10;99.90
19385;DHT22;9828;54.122;17.974;2023-12-20T10:46:33;5.10;99.90
19385;DHT22;9828;54.122;17.974;2023-12-20T10:51:56;5.10;99.90
19385;DHT22;9828;54.122;17.974;2023-12-20T10:57:18;5.10;1.00
19385;DHT22;9828;54.122;17.974;2023-12-20T11:02:40;5.00;1.00
19385;DHT22;9828;54.122;17.974;2023-12-20T11:08:25;5.10;1.00
19385;DHT22;9828;54.122;17.974;2023-12-20T11:14:04;5.20;1.00
19385;DHT22;9828;54.122;17.974;2023-12-20T11:19:26;5.20;1.00
19385;DHT22;9828;54.122;17.974;2023-12-20T11:24:48;5.20;1.00
19385;DHT22;9828;54.122;17.974;2023-12-20T11:30:12;5.10;1.00
19385;DHT22;9828;54.122;17.974;2023-12-20T11:35:35;5.30;1.00
19385;DHT22;9828;54.122;17.974;2023-12-20T11:40:59;5.30;1.00
19385;DHT22;9828;54.122;17.974;2023-12-20T11:46:25;5.20;1.00
19385;DHT22;9828;54.122;17.974;2023-12-20T11:51:46;5.20;1.00
19385;DHT22;9828;54.122;17.974;2023-12-20T11:57:08;5.10;1.00
19385;DHT22;9828;54.122;17.974;2023-12-20T12:02:30;5.10;1.00
19385;DHT22;9828;54.122;17.974;2023-12-20T12:07:51;5.00;1.00
19385;DHT22;9828;54.122;17.974;2023-12-20T12:13:13;5.10;1.00
19385;DHT22;9828;54.122;17.974;2023-12-20T12:18:35;5.10;1.00
19385;DHT22;9828;54.122;17.974;2023-12-20T12:24:07;5.10;1.00
19385;DHT22;9828;54.122;17.974;2023-12-20T12:29:28;5.10;1.00
19385;DHT22;9828;54.122;17.974;2023-12-20T12:34:50;5.10;1.00
19385;DHT22;9828;54.122;17.974;2023-12-20T12:40:13;5.10;1.00
19385;DHT22;9828;54.122;17.974;2023-12-20T12:45:34;5.10;1.00
19385;DHT22;9828;54.122;17.974;2023-12-20T12:50:56;5.10;1.00
19385;DHT22;9828;54.122;17.974;2023-12-20T12:56:19;5.10;1.00
19385;DHT22;9828;54.122;17.974;2023-12-20T13:01:43;5.00;1.00
19385;DHT22;9828;54.122;17.974;2023-12-20T13:07:04;5.00;1.00
19385;DHT22;9828;54.122;17.974;2023-12-20T13:12:26;5.00;1.00
19385;DHT22;9828;54.122;17.974;2023-12-20T13:17:47;5.00;1.00
19385;DHT22;9828;54.122;17.974;2023-12-20T13:23:09;5.00;1.00
19385;DHT22;9828;54.122;17.974;2023-12-20T13:28:30;5.10;1.00
19385;DHT22;9828;54.122;17.974;2023-12-20T13:33:51;5.10;1.00
19385;DHT22;9828;54.122;17.974;2023-12-20T13:39:15;5.00;1.00
19385;DHT22;9828;54.122;17.974;2023-12-20T13:44:37;5.00;1.00
19385;DHT22;9828;54.122;17.974;2023-12-20T13:49:59;5.00;1.00
19385;DHT22;9828;54.122;17.974;2023-12-20T13:55:20;5.00;1.00
19385;DHT22;9828;54.122;17.974;2023-12-20T14:00:45;5.00;1.00
19385;DHT22;9828;54.122;17.974;2023-12-20T14:06:07;5.00;1.00
19385;DHT22;9828;54.122;17.974;2023-12-20T14:11:28;4.90;1.00
19385;DHT22;9828;54.122;17.974;2023-12-20T14:16:50;4.90;1.00
19385;DHT22;9828;54.122;17.974;2023-12-20T14:22:12;4.90;1.00
19385;DHT22;9828;54.122;17.974;2023-12-20T14:27:38;4.90;1.00
19385;DHT22;9828;54.122;17.974;2023-12-20T14:33:00;4.90;1.00
19385;DHT22;9828;54.122;17.974;2023-12-20T14:38:22;4.80;1.00
19385;DHT22;9828;54.122;17.974;2023-12-20T14:43:44;4.90;1.00
19385;DHT22;9828;54.122;17.974;2023-12-20T14:49:05;4.80;1.00
19385;DHT22;9828;54.122;17.974;2023-12-20T14:54:27;4.90;1.00
19385;DHT22;9828;54.122;17.974;2023-12-20T14:59:48;4.90;1.00
19385;DHT22;9828;54.122;17.974;2023-12-20T15:05:10;4.90;1.00
19385;DHT22;9828;54.122;17.974;2023-12-20T15:10:31;4.90;1.00
19385;DHT22;9828;54.122;17.974;2023-12-20T15:15:52;4.90;1.00
19385;DHT22;9828;54.122;17.974;2023-12-20T15:21:15;5.00;1.00
19385;DHT22;9828;54.122;17.974;2023-12-20T15:26:38;5.00;1.00
19385;DHT22;9828;54.122;17.974;2023-12-20T15:31:59;4.90;1.00
19385;DHT22;9828;54.122;17.974;2023-12-20T15:37:21;4.80;1.00
19385;DHT22;9828;54.122;17.974;2023-12-20T15:42:43;4.90;1.00
19385;DHT22;9828;54.122;17.974;2023-12-20T15:48:05;4.80;1.00
19385;DHT22;9828;54.122;17.974;2023-12-20T15:53:26;4.70;1.00
19385;DHT22;9828;54.122;17.974;2023-12-20T15:58:47;4.60;1.00
19385;DHT22;9828;54.122;17.974;2023-12-20T16:04:13;4.40;1.00
19385;DHT22;9828;54.122;17.974;2023-12-20T16:09:34;4.30;1.00
19385;DHT22;9828;54.122;17.974;2023-12-20T16:14:55;4.20;1.00
19385;DHT22;9828;54.122;17.974;2023-12-20T16:20:17;4.00;1.00
19385;DHT22;9828;54.122;17.974;2023-12-20T16:25:38;4.00;1.00
19385;DHT22;9828;54.122;17.974;2023-12-20T16:31:00;3.90;1.00
19385;DHT22;9828;54.122;17.974;2023-12-20T16:36:21;4.00;1.00
19385;DHT22;9828;54.122;17.974;2023-12-20T16:41:42;4.00;1.00
19385;DHT22;9828;54.122;17.974;2023-12-20T16:47:04;4.00;1.00
19385;DHT22;9828;54.122;17.974;2023-12-20T16:52:25;4.10;1.00
19385;DHT22;9828;54.122;17.974;2023-12-20T16:57:47;4.10;1.00
19385;DHT22;9828;54.122;17.974;2023-12-20T17:03:08;4.20;1.00
19385;DHT22;9828;54.122;17.974;2023-12-20T17:08:29;4.20;1.00
19385;DHT22;9828;54.122;17.974;2023-12-20T17:13:51;4.10;1.00
19385;DHT22;9828;54.122;17.974;2023-12-20T17:19:13;4.20;1.00
19385;DHT22;9828;54.122;17.974;2023-12-20T17:24:35;4.10;1.00
19385;DHT22;9828;54.122;17.974;2023-12-20T17:29:56;4.20;1.00
19385;DHT22;9828;54.122;17.974;2023-12-20T17:35:18;4.20;1.00
19385;DHT22;9828;54.122;17.974;2023-12-20T17:40:41;4.20;1.00
19385;DHT22;9828;54.122;17.974;2023-12-20T17:46:02;4.20;99.90
19385;DHT22;9828;54.122;17.974;2023-12-20T17:51:23;4.10;1.00
19385;DHT22;9828;54.122;17.974;2023-12-20T17:56:45;4.20;1.00
19385;DHT22;9828;54.122;17.974;2023-12-20T18:02:07;4.20;1.00
19385;DHT22;9828;54.122;17.974;2023-12-20T18:07:29;4.10;1.00
19385;DHT22;9828;54.122;17.974;2023-12-20T18:12:50;4.20;1.00
19385;DHT22;9828;54.122;17.974;2023-12-20T18:18:11;4.20;1.00
19385;DHT22;9828;54.122;17.974;2023-12-20T18:23:33;4.20;1.00
19385;DHT22;9828;54.122;17.974;2023-12-20T18:28:54;4.00;1.00
19385;DHT22;9828;54.122;17.974;2023-12-20T18:34:15;4.00;1.00
19385;DHT22;9828;54.122;17.974;2023-12-20T18:39:37;4.00;1.00
19385;DHT22;9828;54.122;17.974;2023-12-20T18:44:59;3.90;1.00
19385;DHT22;9828;54.122;17.974;2023-12-20T18:50:20;3.80;1.00
19385;DHT22;9828;54.122;17.974;2023-12-20T18:55:41;3.70;1.00
19385;DHT22;9828;54.122;17.974;2023-12-20T19:01:03;3.70;1.00
19385;DHT22;9828;54.122;17.974;2023-12-20T19:06:25;3.60;1.00
19385;DHT22;9828;54.122;17.974;2023-12-20T19:11:46;3.30;1.00
19385;DHT22;9828;54.122;17.974;2023-12-20T19:17:07;3.10;99.90
19385;DHT22;9828;54.122;17.974;2023-12-20T19:22:28;2.90;99.90
19385;DHT22;9828;54.122;17.974;2023-12-20T19:27:53;2.80;1.00
19385;DHT22;9828;54.122;17.974;2023-12-20T19:33:14;2.80;1.00
19385;DHT22;9828;54.122;17.974;2023-12-20T19:38:35;2.70;1.00
19385;DHT22;9828;54.122;17.974;2023-12-20T19:43:57;2.80;1.00
19385;DHT22;9828;54.122;17.974;2023-12-20T19:49:19;2.70;1.00
19385;DHT22;9828;54.122;17.974;2023-12-20T19:54:40;2.80;1.00
19385;DHT22;9828;54.122;17.974;2023-12-20T20:00:02;2.80;1.00
19385;DHT22;9828;54.122;17.974;2023-12-20T20:05:32;2.70;1.00
19385;DHT22;9828;54.122;17.974;2023-12-20T20:10:53;2.70;1.00
19385;DHT22;9828;54.122;17.974;2023-12-20T20:16:14;2.60;1.00
19385;DHT22;9828;54.122;17.974;2023-12-20T20:21:36;2.50;1.00
19385;DHT22;9828;54.122;17.974;2023-12-20T20:26:57;2.40;1.00
19385;DHT22;9828;54.122;17.974;2023-12-20T20:32:19;2.30;1.00
19385;DHT22;9828;54.122;17.974;2023-12-20T20:37:40;2.20;1.00
19385;DHT22;9828;54.122;17.974;2023-12-20T20:43:02;2.20;1.00
19385;DHT22;9828;54.122;17.974;2023-12-20T20:48:24;2.30;1.00
19385;DHT22;9828;54.122;17.974;2023-12-20T20:53:46;2.30;1.00
19385;DHT22;9828;54.122;17.974;2023-12-20T20:59:08;2.30;1.00
19385;DHT22;9828;54.122;17.974;2023-12-20T21:04:29;2.20;1.00
19385;DHT22;9828;54.122;17.974;2023-12-20T21:09:50;2.30;1.00
19385;DHT22;9828;54.122;17.974;2023-12-20T21:15:12;2.30;1.00
19385;DHT22;9828;54.122;17.974;2023-12-20T21:20:35;2.10;1.00
19385;DHT22;9828;54.122;17.974;2023-12-20T21:25:56;2.20;1.00
19385;DHT22;9828;54.122;17.974;2023-12-20T21:31:17;2.30;1.00
19385;DHT22;9828;54.122;17.974;2023-12-20T21:36:38;2.40;1.00
19385;DHT22;9828;54.122;17.974;2023-12-20T21:42:00;2.40;1.00
19385;DHT22;9828;54.122;17.974;2023-12-20T21:47:21;2.50;1.00
19385;DHT22;9828;54.122;17.974;2023-12-20T21:52:42;2.60;1.00
19385;DHT22;9828;54.122;17.974;2023-12-20T21:58:04;2.60;1.00
19385;DHT22;9828;54.122;17.974;2023-12-20T22:03:25;2.70;1.00
19385;DHT22;9828;54.122;17.974;2023-12-20T22:08:46;2.70;1.00
19385;DHT22;9828;54.122;17.974;2023-12-20T22:14:08;2.60;1.00
19385;DHT22;9828;54.122;17.974;2023-12-20T22:19:29;2.80;1.00
19385;DHT22;9828;54.122;17.974;2023-12-20T22:24:51;2.80;1.00
19385;DHT22;9828;54.122;17.974;2023-12-20T22:30:13;2.80;1.00
19385;DHT22;9828;54.122;17.974;2023-12-20T22:35:34;2.90;1.00
19385;DHT22;9828;54.122;17.974;2023-12-20T22:40:56;2.80;1.00
19385;DHT22;9828;54.122;17.974;2023-12-20T22:46:17;2.90;1.00
19385;DHT22;9828;54.122;17.974;2023-12-20T22:51:38;2.80;1.00
19385;DHT22;9828;54.122;17.974;2023-12-20T22:57:00;2.80;1.00
19385;DHT22;9828;54.122;17.974;2023-12-20T23:02:21;2.80;1.00
19385;DHT22;9828;54.122;17.974;2023-12-20T23:07:42;2.90;1.00
19385;DHT22;9828;54.122;17.974;2023-12-20T23:13:04;2.80;1.00
19385;DHT22;9828;54.122;17.974;2023-12-20T23:18:26;2.90;1.00
19385;DHT22;9828;54.122;17.974;2023-12-20T23:23:47;2.90;1.00
19385;DHT22;9828;54.122;17.974;2023-12-20T23:29:08;2.90;1.00
19385;DHT22;9828;54.122;17.974;2023-12-20T23:34:30;3.00;1.00
19385;DHT22;9828;54.122;17.974;2023-12-20T23:39:51;2.90;1.00
19385;DHT22;9828;54.122;17.974;2023-12-20T23:45:12;3.00;1.00
19385;DHT22;9828;54.122;17.974;2023-12-20T23:50:33;3.00;1.00
19385;DHT22;9828;54.122;17.974;2023-12-20T23:55:55;3.00;1.00
